Ana Sayfa
METAR-TAF:

METAR-TAF

Havaalanları :

Shell Mera, Ekvador

Enlem: 01-30-19S, Boylam: 078-03-46W, yükseklik: 1056 m

Güncel hava durumu gözlemi

Rapor saat 23:00 UTC de 10 saat ve 35 dakika önce yapıldı.
Rüzgar doğu/kuzeydoğudan 4 kt
Sıcaklık 24°C
Nem 74%
Basınç 1014 hPa
Görüş mesafesi 10 km veya daha fazla
3000 ft yükseklikte parçalı çok bulutlu
30000 ft yükseklikte parçalı bulutlu
hafif yağmur

METAR: SESM 192300Z 07004KT 9999 -RA BKN030 SCT300 24/19 Q1014 RMK A2996

Saat: 04:35 (09:35 UTC)


TAF: eksik

4.000'den fazla havaalanı için hava durumu gözlemleri ve tahminleri (METAR ve TAF raporları).

Kullanılabilir istasyonlar harita üzerinde sarı ve kırmızı noktalarla gösterilir.

İstasyonun adını görmek için fareyi noktanın üzerinde gezdirin.

Sonrasında hava gözlem ve tahminlerini görmek için tıklayın.

Haritayı değiştirmek için: yaklaştırmak için siyah artı işaretli yeşil düğmeye ve uzaklaştırmak için de eksi işaretli düğmeye hızla tıklayın; bitişik haritalar için yeşil okları kullanın.


METAR-TAF: